Garciasville, Texas
Current Conditions -  °F | °C
As of 11:12 AM on Saturday 20 Dec 2014 (Local Time) from KMFE Reporting Station
Overcast Overcast  
Wind Chill: 57°   Ceiling: 1100
Heat Index: 57°   Visibility: 10mi
Dew Point: 53°   Wind: 8mph
Humidity: 87%   Direction: 360°N
Pressure: 30.22"   Gusts: NA
Location:  26.32°N, 98.69°W
Report Text: KMFE 201712Z 36007KT 10SM OVC011 14/12 A3022 RMK AO2 T01390117
Loading
Personal Weather Stations






























Interactive Weather Map New forecast layout! Learn more

10-Day Weather Forecast

Advertisements
Track Severe Weather on mobile